sensor_id;sensor_type;location;lat;lon;timestamp;temperature;humidity
72940;DHT22;61094;51.154;13.570;2023-09-18T00:03:45;19.10;97.00
72940;DHT22;61094;51.154;13.570;2023-09-18T00:08:48;19.10;97.50
72940;DHT22;61094;51.154;13.570;2023-09-18T00:13:52;19.10;96.80
72940;DHT22;61094;51.154;13.570;2023-09-18T00:18:54;19.10;97.60
72940;DHT22;61094;51.154;13.570;2023-09-18T00:23:56;19.10;97.30
72940;DHT22;61094;51.154;13.570;2023-09-18T00:29:00;19.00;98.40
72940;DHT22;61094;51.154;13.570;2023-09-18T00:34:01;18.90;98.60
72940;DHT22;61094;51.154;13.570;2023-09-18T00:39:03;18.80;99.30
72940;DHT22;61094;51.154;13.570;2023-09-18T00:44:06;18.80;99.90
72940;DHT22;61094;51.154;13.570;2023-09-18T00:49:08;18.70;99.90
72940;DHT22;61094;51.154;13.570;2023-09-18T00:54:11;18.60;99.90
72940;DHT22;61094;51.154;13.570;2023-09-18T00:59:14;18.70;99.90
72940;DHT22;61094;51.154;13.570;2023-09-18T01:04:16;18.60;99.90
72940;DHT22;61094;51.154;13.570;2023-09-18T01:09:19;18.70;99.90
72940;DHT22;61094;51.154;13.570;2023-09-18T01:14:25;18.70;99.90
72940;DHT22;61094;51.154;13.570;2023-09-18T01:19:35;18.70;99.90
72940;DHT22;61094;51.154;13.570;2023-09-18T01:24:40;18.70;99.90
72940;DHT22;61094;51.154;13.570;2023-09-18T01:29:42;18.60;99.90
72940;DHT22;61094;51.154;13.570;2023-09-18T01:34:46;18.60;99.90
72940;DHT22;61094;51.154;13.570;2023-09-18T01:39:51;18.60;99.90
72940;DHT22;61094;51.154;13.570;2023-09-18T01:44:54;18.50;99.90
72940;DHT22;61094;51.154;13.570;2023-09-18T01:49:56;18.50;99.90
72940;DHT22;61094;51.154;13.570;2023-09-18T01:54:59;18.50;99.90
72940;DHT22;61094;51.154;13.570;2023-09-18T02:00:01;18.40;99.90
72940;DHT22;61094;51.154;13.570;2023-09-18T02:05:13;18.40;99.90
72940;DHT22;61094;51.154;13.570;2023-09-18T02:10:16;18.40;99.90
72940;DHT22;61094;51.154;13.570;2023-09-18T02:15:18;18.40;99.90
72940;DHT22;61094;51.154;13.570;2023-09-18T02:20:20;18.30;99.90
72940;DHT22;61094;51.154;13.570;2023-09-18T02:25:23;18.20;99.90
72940;DHT22;61094;51.154;13.570;2023-09-18T02:30:25;18.10;99.90
72940;DHT22;61094;51.154;13.570;2023-09-18T02:35:27;18.10;99.90
72940;DHT22;61094;51.154;13.570;2023-09-18T02:40:30;18.10;99.90
72940;DHT22;61094;51.154;13.570;2023-09-18T02:45:32;18.10;99.90
72940;DHT22;61094;51.154;13.570;2023-09-18T02:50:34;18.00;99.90
72940;DHT22;61094;51.154;13.570;2023-09-18T02:55:38;17.90;99.90
72940;DHT22;61094;51.154;13.570;2023-09-18T03:00:43;17.90;99.90
72940;DHT22;61094;51.154;13.570;2023-09-18T03:05:46;17.90;99.90
72940;DHT22;61094;51.154;13.570;2023-09-18T03:10:50;17.90;99.90
72940;DHT22;61094;51.154;13.570;2023-09-18T03:15:54;17.80;99.90
72940;DHT22;61094;51.154;13.570;2023-09-18T03:20:57;17.70;99.90
72940;DHT22;61094;51.154;13.570;2023-09-18T03:26:00;17.70;99.90
72940;DHT22;61094;51.154;13.570;2023-09-18T03:31:03;17.60;99.90
72940;DHT22;61094;51.154;13.570;2023-09-18T03:36:06;17.60;99.90
72940;DHT22;61094;51.154;13.570;2023-09-18T03:41:10;17.50;99.90
72940;DHT22;61094;51.154;13.570;2023-09-18T03:46:12;17.50;99.90
72940;DHT22;61094;51.154;13.570;2023-09-18T03:51:19;17.50;99.90
72940;DHT22;61094;51.154;13.570;2023-09-18T03:56:23;17.50;99.90
72940;DHT22;61094;51.154;13.570;2023-09-18T04:01:29;17.40;99.90
72940;DHT22;61094;51.154;13.570;2023-09-18T04:06:36;17.40;99.90
72940;DHT22;61094;51.154;13.570;2023-09-18T04:11:40;17.30;99.90
72940;DHT22;61094;51.154;13.570;2023-09-18T04:16:42;17.30;99.90
72940;DHT22;61094;51.154;13.570;2023-09-18T04:21:45;17.30;99.90
72940;DHT22;61094;51.154;13.570;2023-09-18T04:26:48;17.30;99.90
72940;DHT22;61094;51.154;13.570;2023-09-18T04:31:51;17.30;99.90
72940;DHT22;61094;51.154;13.570;2023-09-18T04:36:54;17.40;99.90
72940;DHT22;61094;51.154;13.570;2023-09-18T04:41:58;17.40;99.90
72940;DHT22;61094;51.154;13.570;2023-09-18T04:47:00;17.40;99.90
72940;DHT22;61094;51.154;13.570;2023-09-18T04:52:05;17.50;99.90
72940;DHT22;61094;51.154;13.570;2023-09-18T04:57:08;17.50;99.90
72940;DHT22;61094;51.154;13.570;2023-09-18T05:02:10;17.40;99.90
72940;DHT22;61094;51.154;13.570;2023-09-18T05:07:12;17.40;99.90
72940;DHT22;61094;51.154;13.570;2023-09-18T05:12:16;17.30;99.90
72940;DHT22;61094;51.154;13.570;2023-09-18T05:17:18;17.30;99.90
72940;DHT22;61094;51.154;13.570;2023-09-18T05:22:19;17.30;99.90
72940;DHT22;61094;51.154;13.570;2023-09-18T05:27:22;17.40;99.90
72940;DHT22;61094;51.154;13.570;2023-09-18T05:32:25;17.50;99.90
72940;DHT22;61094;51.154;13.570;2023-09-18T05:37:27;17.60;99.90
72940;DHT22;61094;51.154;13.570;2023-09-18T05:42:30;17.80;99.90
72940;DHT22;61094;51.154;13.570;2023-09-18T05:47:33;17.80;99.90
72940;DHT22;61094;51.154;13.570;2023-09-18T05:52:36;17.90;99.90
72940;DHT22;61094;51.154;13.570;2023-09-18T05:57:39;18.00;99.90
72940;DHT22;61094;51.154;13.570;2023-09-18T06:02:41;18.00;99.90
72940;DHT22;61094;51.154;13.570;2023-09-18T06:07:44;18.10;99.90
72940;DHT22;61094;51.154;13.570;2023-09-18T06:12:47;18.20;99.90
72940;DHT22;61094;51.154;13.570;2023-09-18T06:17:49;18.40;99.90
72940;DHT22;61094;51.154;13.570;2023-09-18T06:22:50;18.50;99.90
72940;DHT22;61094;51.154;13.570;2023-09-18T06:27:53;18.70;99.90
72940;DHT22;61094;51.154;13.570;2023-09-18T06:32:55;18.90;99.90
72940;DHT22;61094;51.154;13.570;2023-09-18T06:37:57;19.10;99.90
72940;DHT22;61094;51.154;13.570;2023-09-18T06:43:01;19.30;99.90
72940;DHT22;61094;51.154;13.570;2023-09-18T06:48:04;19.50;99.90
72940;DHT22;61094;51.154;13.570;2023-09-18T06:53:06;19.60;99.90
72940;DHT22;61094;51.154;13.570;2023-09-18T06:58:09;19.70;99.90
72940;DHT22;61094;51.154;13.570;2023-09-18T07:03:11;19.80;99.90
72940;DHT22;61094;51.154;13.570;2023-09-18T07:08:13;19.90;99.90
72940;DHT22;61094;51.154;13.570;2023-09-18T07:13:17;20.10;99.90
72940;DHT22;61094;51.154;13.570;2023-09-18T07:18:19;20.30;99.90
72940;DHT22;61094;51.154;13.570;2023-09-18T07:23:21;20.40;99.90
72940;DHT22;61094;51.154;13.570;2023-09-18T07:28:24;20.70;99.00
72940;DHT22;61094;51.154;13.570;2023-09-18T07:33:26;20.90;98.10
72940;DHT22;61094;51.154;13.570;2023-09-18T07:38:28;21.20;96.90
72940;DHT22;61094;51.154;13.570;2023-09-18T07:43:32;21.50;94.50
72940;DHT22;61094;51.154;13.570;2023-09-18T07:48:34;21.80;93.70
72940;DHT22;61094;51.154;13.570;2023-09-18T07:53:35;22.00;93.20
72940;DHT22;61094;51.154;13.570;2023-09-18T07:58:39;22.40;91.90
72940;DHT22;61094;51.154;13.570;2023-09-18T08:03:41;22.60;90.40
72940;DHT22;61094;51.154;13.570;2023-09-18T08:08:42;22.80;89.10
72940;DHT22;61094;51.154;13.570;2023-09-18T08:13:45;23.10;83.20
72940;DHT22;61094;51.154;13.570;2023-09-18T08:18:47;23.30;82.20
72940;DHT22;61094;51.154;13.570;2023-09-18T08:23:49;23.60;81.40
72940;DHT22;61094;51.154;13.570;2023-09-18T08:28:52;23.90;75.00
72940;DHT22;61094;51.154;13.570;2023-09-18T08:33:53;24.00;70.20
72940;DHT22;61094;51.154;13.570;2023-09-18T08:38:55;24.10;70.00
72940;DHT22;61094;51.154;13.570;2023-09-18T08:43:59;24.40;67.30
72940;DHT22;61094;51.154;13.570;2023-09-18T08:49:02;25.00;61.90
72940;DHT22;61094;51.154;13.570;2023-09-18T08:54:05;25.40;58.90
72940;DHT22;61094;51.154;13.570;2023-09-18T08:59:08;25.90;49.80
72940;DHT22;61094;51.154;13.570;2023-09-18T09:04:10;26.30;47.60
72940;DHT22;61094;51.154;13.570;2023-09-18T09:09:12;26.30;45.10
72940;DHT22;61094;51.154;13.570;2023-09-18T09:14:17;26.50;44.20
72940;DHT22;61094;51.154;13.570;2023-09-18T09:19:29;26.70;41.90
72940;DHT22;61094;51.154;13.570;2023-09-18T09:24:39;26.70;41.90
72940;DHT22;61094;51.154;13.570;2023-09-18T09:29:42;26.60;42.10
72940;DHT22;61094;51.154;13.570;2023-09-18T09:34:46;26.50;41.40
72940;DHT22;61094;51.154;13.570;2023-09-18T09:39:49;26.60;41.30
72940;DHT22;61094;51.154;13.570;2023-09-18T09:45:04;26.70;40.30
72940;DHT22;61094;51.154;13.570;2023-09-18T09:50:07;27.20;39.70
72940;DHT22;61094;51.154;13.570;2023-09-18T09:55:20;27.40;39.00
72940;DHT22;61094;51.154;13.570;2023-09-18T10:00:24;27.50;37.40
72940;DHT22;61094;51.154;13.570;2023-09-18T10:05:31;27.20;37.90
72940;DHT22;61094;51.154;13.570;2023-09-18T10:10:35;27.00;38.10
72940;DHT22;61094;51.154;13.570;2023-09-18T10:15:39;26.90;38.90
72940;DHT22;61094;51.154;13.570;2023-09-18T10:20:44;26.80;38.50
72940;DHT22;61094;51.154;13.570;2023-09-18T10:25:48;27.20;38.10
72940;DHT22;61094;51.154;13.570;2023-09-18T10:30:56;27.80;36.80
72940;DHT22;61094;51.154;13.570;2023-09-18T10:35:58;28.50;36.00
72940;DHT22;61094;51.154;13.570;2023-09-18T10:41:01;28.80;34.30
72940;DHT22;61094;51.154;13.570;2023-09-18T10:46:04;28.60;34.20
72940;DHT22;61094;51.154;13.570;2023-09-18T10:51:06;28.30;34.20
72940;DHT22;61094;51.154;13.570;2023-09-18T10:56:08;28.00;34.80
72940;DHT22;61094;51.154;13.570;2023-09-18T11:01:12;27.80;35.70
72940;DHT22;61094;51.154;13.570;2023-09-18T11:06:14;27.70;35.30
72940;DHT22;61094;51.154;13.570;2023-09-18T11:11:19;27.50;35.90
72940;DHT22;61094;51.154;13.570;2023-09-18T11:16:36;27.30;36.40
72940;DHT22;61094;51.154;13.570;2023-09-18T11:21:39;27.20;36.90
72940;DHT22;61094;51.154;13.570;2023-09-18T11:26:42;27.10;35.40
72940;DHT22;61094;51.154;13.570;2023-09-18T11:31:47;27.10;34.90
72940;DHT22;61094;51.154;13.570;2023-09-18T11:36:50;27.10;34.90
72940;DHT22;61094;51.154;13.570;2023-09-18T11:42:06;27.40;35.10
72940;DHT22;61094;51.154;13.570;2023-09-18T11:47:12;27.90;34.00
72940;DHT22;61094;51.154;13.570;2023-09-18T11:52:17;28.30;33.10
72940;DHT22;61094;51.154;13.570;2023-09-18T11:57:20;28.60;33.80
72940;DHT22;61094;51.154;13.570;2023-09-18T12:02:26;29.10;33.00
72940;DHT22;61094;51.154;13.570;2023-09-18T12:07:35;29.40;32.20
72940;DHT22;61094;51.154;13.570;2023-09-18T12:12:37;29.30;32.30
72940;DHT22;61094;51.154;13.570;2023-09-18T12:17:40;29.20;31.90
72940;DHT22;61094;51.154;13.570;2023-09-18T12:22:47;29.30;32.30
72940;DHT22;61094;51.154;13.570;2023-09-18T12:27:51;29.50;32.40
72940;DHT22;61094;51.154;13.570;2023-09-18T12:32:57;29.70;31.80
72940;DHT22;61094;51.154;13.570;2023-09-18T12:38:00;29.90;31.80
72940;DHT22;61094;51.154;13.570;2023-09-18T12:43:05;30.00;31.00
72940;DHT22;61094;51.154;13.570;2023-09-18T12:48:09;29.80;31.40
72940;DHT22;61094;51.154;13.570;2023-09-18T12:53:13;29.60;31.80
72940;DHT22;61094;51.154;13.570;2023-09-18T12:58:18;29.30;31.90
72940;DHT22;61094;51.154;13.570;2023-09-18T13:03:22;29.00;32.00
72940;DHT22;61094;51.154;13.570;2023-09-18T13:08:23;28.90;33.30
72940;DHT22;61094;51.154;13.570;2023-09-18T13:13:25;28.60;33.20
72940;DHT22;61094;51.154;13.570;2023-09-18T13:18:28;28.50;32.30
72940;DHT22;61094;51.154;13.570;2023-09-18T13:23:31;28.40;32.20
72940;DHT22;61094;51.154;13.570;2023-09-18T13:28:34;28.50;33.40
72940;DHT22;61094;51.154;13.570;2023-09-18T13:33:39;28.70;33.30
72940;DHT22;61094;51.154;13.570;2023-09-18T13:38:44;28.90;32.60
72940;DHT22;61094;51.154;13.570;2023-09-18T13:43:46;28.90;32.90
72940;DHT22;61094;51.154;13.570;2023-09-18T13:48:50;28.80;32.50
72940;DHT22;61094;51.154;13.570;2023-09-18T13:53:52;28.80;32.80
72940;DHT22;61094;51.154;13.570;2023-09-18T13:58:56;28.60;33.60
72940;DHT22;61094;51.154;13.570;2023-09-18T14:04:00;28.40;34.00
72940;DHT22;61094;51.154;13.570;2023-09-18T14:09:01;28.20;34.40
72940;DHT22;61094;51.154;13.570;2023-09-18T14:14:06;28.00;34.90
72940;DHT22;61094;51.154;13.570;2023-09-18T14:19:09;27.80;35.50
72940;DHT22;61094;51.154;13.570;2023-09-18T14:24:12;27.60;36.00
72940;DHT22;61094;51.154;13.570;2023-09-18T14:29:15;27.50;36.80
72940;DHT22;61094;51.154;13.570;2023-09-18T14:34:18;27.40;37.10
72940;DHT22;61094;51.154;13.570;2023-09-18T14:39:20;27.40;37.30
72940;DHT22;61094;51.154;13.570;2023-09-18T14:44:21;27.20;37.30
72940;DHT22;61094;51.154;13.570;2023-09-18T14:49:25;27.10;37.60
72940;DHT22;61094;51.154;13.570;2023-09-18T14:54:28;26.90;37.50
72940;DHT22;61094;51.154;13.570;2023-09-18T14:59:30;26.70;37.90
72940;DHT22;61094;51.154;13.570;2023-09-18T15:04:33;26.50;38.80
72940;DHT22;61094;51.154;13.570;2023-09-18T15:09:35;26.30;36.60
72940;DHT22;61094;51.154;13.570;2023-09-18T15:14:38;26.10;36.40
72940;DHT22;61094;51.154;13.570;2023-09-18T15:19:41;25.90;37.10
72940;DHT22;61094;51.154;13.570;2023-09-18T15:24:43;25.80;38.00
72940;DHT22;61094;51.154;13.570;2023-09-18T15:29:46;25.60;38.00
72940;DHT22;61094;51.154;13.570;2023-09-18T15:34:49;25.50;37.60
72940;DHT22;61094;51.154;13.570;2023-09-18T15:39:51;25.30;37.80
72940;DHT22;61094;51.154;13.570;2023-09-18T15:44:53;25.10;39.10
72940;DHT22;61094;51.154;13.570;2023-09-18T15:49:57;25.00;40.00
72940;DHT22;61094;51.154;13.570;2023-09-18T15:54:59;24.80;41.10
72940;DHT22;61094;51.154;13.570;2023-09-18T16:00:01;24.60;44.70
72940;DHT22;61094;51.154;13.570;2023-09-18T16:05:13;24.40;52.00
72940;DHT22;61094;51.154;13.570;2023-09-18T16:10:15;24.10;59.90
72940;DHT22;61094;51.154;13.570;2023-09-18T16:15:18;23.80;64.60
72940;DHT22;61094;51.154;13.570;2023-09-18T16:20:22;23.50;76.20
72940;DHT22;61094;51.154;13.570;2023-09-18T16:25:24;23.20;90.90
72940;DHT22;61094;51.154;13.570;2023-09-18T16:30:25;23.00;85.00
72940;DHT22;61094;51.154;13.570;2023-09-18T16:35:30;22.90;86.90
72940;DHT22;61094;51.154;13.570;2023-09-18T16:40:32;22.70;96.70
72940;DHT22;61094;51.154;13.570;2023-09-18T16:45:34;22.50;93.60
72940;DHT22;61094;51.154;13.570;2023-09-18T16:50:37;22.50;91.90
72940;DHT22;61094;51.154;13.570;2023-09-18T16:55:39;22.40;99.90
72940;DHT22;61094;51.154;13.570;2023-09-18T17:00:41;22.30;99.90
72940;DHT22;61094;51.154;13.570;2023-09-18T17:05:44;22.00;99.90
72940;DHT22;61094;51.154;13.570;2023-09-18T17:10:46;21.50;99.90
72940;DHT22;61094;51.154;13.570;2023-09-18T17:15:48;20.90;99.90
72940;DHT22;61094;51.154;13.570;2023-09-18T17:20:51;20.50;99.90
72940;DHT22;61094;51.154;13.570;2023-09-18T17:25:53;19.70;99.90
72940;DHT22;61094;51.154;13.570;2023-09-18T17:30:55;19.00;99.90
72940;DHT22;61094;51.154;13.570;2023-09-18T17:35:58;18.60;99.90
72940;DHT22;61094;51.154;13.570;2023-09-18T17:41:01;18.40;99.90
72940;DHT22;61094;51.154;13.570;2023-09-18T17:46:04;18.30;99.90
72940;DHT22;61094;51.154;13.570;2023-09-18T17:51:07;18.20;99.90
72940;DHT22;61094;51.154;13.570;2023-09-18T17:56:09;18.30;99.90
72940;DHT22;61094;51.154;13.570;2023-09-18T18:01:12;18.30;99.90
72940;DHT22;61094;51.154;13.570;2023-09-18T18:06:15;18.30;99.90
72940;DHT22;61094;51.154;13.570;2023-09-18T18:11:17;18.10;99.90
72940;DHT22;61094;51.154;13.570;2023-09-18T18:16:21;18.20;99.90
72940;DHT22;61094;51.154;13.570;2023-09-18T18:21:24;18.00;99.90
72940;DHT22;61094;51.154;13.570;2023-09-18T18:26:27;17.80;99.90
72940;DHT22;61094;51.154;13.570;2023-09-18T18:31:30;17.80;99.90
72940;DHT22;61094;51.154;13.570;2023-09-18T18:36:33;17.80;99.90
72940;DHT22;61094;51.154;13.570;2023-09-18T18:41:38;17.90;99.90
72940;DHT22;61094;51.154;13.570;2023-09-18T18:46:41;17.80;99.90
72940;DHT22;61094;51.154;13.570;2023-09-18T18:51:44;17.70;99.90
72940;DHT22;61094;51.154;13.570;2023-09-18T18:56:46;17.60;99.90
72940;DHT22;61094;51.154;13.570;2023-09-18T19:01:48;17.50;99.90
72940;DHT22;61094;51.154;13.570;2023-09-18T19:06:51;17.50;99.90
72940;DHT22;61094;51.154;13.570;2023-09-18T19:11:53;17.40;99.90
72940;DHT22;61094;51.154;13.570;2023-09-18T19:16:55;17.40;99.90
72940;DHT22;61094;51.154;13.570;2023-09-18T19:21:58;17.40;99.90
72940;DHT22;61094;51.154;13.570;2023-09-18T19:27:00;17.30;99.90
72940;DHT22;61094;51.154;13.570;2023-09-18T19:32:05;17.30;99.90
72940;DHT22;61094;51.154;13.570;2023-09-18T19:37:08;17.30;99.90
72940;DHT22;61094;51.154;13.570;2023-09-18T19:42:10;17.30;99.90
72940;DHT22;61094;51.154;13.570;2023-09-18T19:47:12;17.20;99.90
72940;DHT22;61094;51.154;13.570;2023-09-18T19:52:15;17.30;99.90
72940;DHT22;61094;51.154;13.570;2023-09-18T19:57:18;17.30;99.90
72940;DHT22;61094;51.154;13.570;2023-09-18T20:02:19;17.30;99.90
72940;DHT22;61094;51.154;13.570;2023-09-18T20:07:23;17.30;99.90
72940;DHT22;61094;51.154;13.570;2023-09-18T20:12:25;17.20;99.90
72940;DHT22;61094;51.154;13.570;2023-09-18T20:17:28;17.20;99.90
72940;DHT22;61094;51.154;13.570;2023-09-18T20:22:31;17.10;99.90
72940;DHT22;61094;51.154;13.570;2023-09-18T20:27:33;17.20;99.90
72940;DHT22;61094;51.154;13.570;2023-09-18T20:32:39;17.10;99.90
72940;DHT22;61094;51.154;13.570;2023-09-18T20:37:42;17.00;99.90
72940;DHT22;61094;51.154;13.570;2023-09-18T20:42:44;17.00;99.90
72940;DHT22;61094;51.154;13.570;2023-09-18T20:47:46;17.00;99.90
72940;DHT22;61094;51.154;13.570;2023-09-18T20:52:49;16.90;99.90
72940;DHT22;61094;51.154;13.570;2023-09-18T20:57:51;16.90;99.90
72940;DHT22;61094;51.154;13.570;2023-09-18T21:02:53;16.90;99.90
72940;DHT22;61094;51.154;13.570;2023-09-18T21:07:56;16.80;99.90
72940;DHT22;61094;51.154;13.570;2023-09-18T21:12:58;16.80;99.90
72940;DHT22;61094;51.154;13.570;2023-09-18T21:18:00;16.80;99.90
72940;DHT22;61094;51.154;13.570;2023-09-18T21:23:03;16.80;99.90
72940;DHT22;61094;51.154;13.570;2023-09-18T21:28:05;16.80;99.90
72940;DHT22;61094;51.154;13.570;2023-09-18T21:33:07;16.70;99.90
72940;DHT22;61094;51.154;13.570;2023-09-18T21:38:10;16.70;99.90
72940;DHT22;61094;51.154;13.570;2023-09-18T21:43:12;16.70;99.90
72940;DHT22;61094;51.154;13.570;2023-09-18T21:48:15;16.70;99.90
72940;DHT22;61094;51.154;13.570;2023-09-18T21:53:18;16.60;99.90
72940;DHT22;61094;51.154;13.570;2023-09-18T21:58:20;16.60;99.90
72940;DHT22;61094;51.154;13.570;2023-09-18T22:03:21;16.60;99.90
72940;DHT22;61094;51.154;13.570;2023-09-18T22:08:25;16.50;99.90
72940;DHT22;61094;51.154;13.570;2023-09-18T22:13:27;16.50;99.90
72940;DHT22;61094;51.154;13.570;2023-09-18T22:18:29;16.50;99.90
72940;DHT22;61094;51.154;13.570;2023-09-18T22:23:32;16.50;99.90
72940;DHT22;61094;51.154;13.570;2023-09-18T22:28:34;16.40;99.90
72940;DHT22;61094;51.154;13.570;2023-09-18T22:33:37;16.40;99.90
72940;DHT22;61094;51.154;13.570;2023-09-18T22:38:49;16.40;99.90
72940;DHT22;61094;51.154;13.570;2023-09-18T22:55:14;16.20;99.90
72940;DHT22;61094;51.154;13.570;2023-09-18T23:00:20;16.20;99.90
72940;DHT22;61094;51.154;13.570;2023-09-18T23:05:23;16.20;99.90
72940;DHT22;61094;51.154;13.570;2023-09-18T23:10:27;16.20;99.90
72940;DHT22;61094;51.154;13.570;2023-09-18T23:15:29;16.20;99.90
72940;DHT22;61094;51.154;13.570;2023-09-18T23:20:31;16.10;99.90
72940;DHT22;61094;51.154;13.570;2023-09-18T23:25:34;16.10;99.90
72940;DHT22;61094;51.154;13.570;2023-09-18T23:30:41;16.10;99.90
72940;DHT22;61094;51.154;13.570;2023-09-18T23:35:43;16.00;99.90
72940;DHT22;61094;51.154;13.570;2023-09-18T23:40:47;16.00;99.90
72940;DHT22;61094;51.154;13.570;2023-09-18T23:45:49;16.00;99.90
72940;DHT22;61094;51.154;13.570;2023-09-18T23:50:51;16.00;99.90
72940;DHT22;61094;51.154;13.570;2023-09-18T23:56:02;16.00;99.90
